Time;durP1;ratioP1;P1;durP2;ratioP2;P2;SDS_P1;SDS_P2;PMS_P1;PMS_P2;Temp;Humidity;BMP_temperature;BMP_pressure;BME280_temperature;BME280_humidity;BME280_pressure;Samples;Min_cycle;Max_cycle;Signal;HPM_P1;HPM_P2
2023/06/27 00:01:19;;;;;;;7.40;1.88;;;;;;;;;;5044315;28;20049;-74
2023/06/27 00:03:45;;;;;;;7.28;1.80;;;;;;;;;;5044753;28;20140;-72
2023/06/27 00:06:16;;;;;;;7.65;1.73;;;;;;;;;;5044137;28;20064;-74
2023/06/27 00:08:43;;;;;;;7.80;1.90;;;;;;;;;;5049725;28;20045;-74
2023/06/27 00:11:09;;;;;;;7.80;1.92;;;;;;;;;;5047938;28;20084;-75
2023/06/27 00:13:40;;;;;;;7.50;1.92;;;;;;;;;;5046736;28;20056;-73
2023/06/27 00:16:12;;;;;;;6.75;1.73;;;;;;;;;;5044404;28;20091;-74
2023/06/27 00:18:38;;;;;;;7.43;1.85;;;;;;;;;;5045971;28;20052;-74
2023/06/27 00:21:05;;;;;;;7.07;2.03;;;;;;;;;;5038196;28;20120;-73
2023/06/27 00:23:34;;;;;;;7.97;2.33;;;;;;;;;;5033475;28;20045;-74
2023/06/27 00:26:00;;;;;;;9.00;2.40;;;;;;;;;;5036739;28;20041;-75
2023/06/27 00:28:29;;;;;;;7.13;2.30;;;;;;;;;;5033925;28;20072;-73
2023/06/27 00:30:56;;;;;;;8.27;2.17;;;;;;;;;;5031523;28;20046;-74
2023/06/27 00:33:22;;;;;;;7.80;2.33;;;;;;;;;;5027157;28;20038;-73
2023/06/27 00:35:48;;;;;;;8.15;2.40;;;;;;;;;;5026677;28;20037;-73
2023/06/27 00:38:14;;;;;;;6.43;2.20;;;;;;;;;;5033551;28;20053;-72
2023/06/27 00:40:40;;;;;;;9.63;2.20;;;;;;;;;;5031622;28;20033;-73
2023/06/27 00:43:06;;;;;;;7.18;2.20;;;;;;;;;;5034126;28;20052;-73
2023/06/27 00:45:32;;;;;;;6.85;2.38;;;;;;;;;;5035162;28;20046;-75
2023/06/27 00:48:00;;;;;;;8.65;2.60;;;;;;;;;;5038671;28;20045;-74
2023/06/27 00:50:27;;;;;;;6.50;2.20;;;;;;;;;;5041809;28;20060;-75
2023/06/27 00:52:53;;;;;;;5.72;2.35;;;;;;;;;;5043792;28;20064;-74
2023/06/27 00:55:21;;;;;;;8.93;2.53;;;;;;;;;;5044508;28;20411;-74
2023/06/27 00:57:48;;;;;;;8.88;2.50;;;;;;;;;;5044798;28;20091;-75
2023/06/27 01:00:17;;;;;;;7.32;2.30;;;;;;;;;;5044489;28;20124;-74
2023/06/27 01:02:47;;;;;;;8.10;2.38;;;;;;;;;;5043400;28;20048;-73
2023/06/27 01:05:14;;;;;;;7.53;2.35;;;;;;;;;;5042394;28;20049;-74
2023/06/27 01:07:48;;;;;;;6.78;2.38;;;;;;;;;;5043082;28;20042;-74
2023/06/27 01:10:20;;;;;;;9.98;2.80;;;;;;;;;;5043898;28;20049;-75
2023/06/27 01:12:55;;;;;;;7.38;2.47;;;;;;;;;;5042890;28;20038;-73
2023/06/27 01:15:21;;;;;;;7.85;2.60;;;;;;;;;;5042867;28;20049;-75
2023/06/27 01:17:49;;;;;;;8.55;2.42;;;;;;;;;;5042659;28;20056;-75
2023/06/27 01:20:15;;;;;;;8.15;2.92;;;;;;;;;;5042693;28;20045;-73
2023/06/27 01:22:45;;;;;;;6.10;2.38;;;;;;;;;;5028890;28;20041;-75
2023/06/27 01:25:14;;;;;;;7.70;2.58;;;;;;;;;;5029125;28;20042;-75
2023/06/27 01:27:40;;;;;;;8.73;2.70;;;;;;;;;;5013380;28;20156;-74
2023/06/27 01:30:06;;;;;;;7.25;2.45;;;;;;;;;;5031113;28;20045;-75
2023/06/27 01:32:37;;;;;;;10.18;2.78;;;;;;;;;;5032391;28;20573;-73
2023/06/27 01:35:23;;;;;;;5.93;2.87;;;;;;;;;;5033204;28;20037;-74
2023/06/27 01:37:55;;;;;;;8.07;2.85;;;;;;;;;;5031381;28;20041;-74
2023/06/27 01:40:22;;;;;;;7.22;2.35;;;;;;;;;;5030701;28;20121;-74
2023/06/27 01:42:50;;;;;;;7.18;2.70;;;;;;;;;;5032199;28;20064;-74
2023/06/27 01:45:17;;;;;;;8.57;2.72;;;;;;;;;;5013408;28;20067;-73
2023/06/27 01:47:44;;;;;;;6.60;2.60;;;;;;;;;;5032032;28;20045;-73
2023/06/27 01:50:10;;;;;;;11.20;2.88;;;;;;;;;;5032032;28;20042;-75
2023/06/27 01:52:37;;;;;;;6.15;2.47;;;;;;;;;;5020616;28;20045;-75
2023/06/27 01:55:03;;;;;;;5.85;2.40;;;;;;;;;;5044041;28;20077;-75
2023/06/27 01:57:29;;;;;;;9.63;3.25;;;;;;;;;;5042498;28;20419;-75
2023/06/27 01:59:55;;;;;;;9.23;2.40;;;;;;;;;;5042365;28;20060;-75
2023/06/27 02:02:22;;;;;;;8.60;2.83;;;;;;;;;;5043122;28;20080;-74
2023/06/27 02:04:48;;;;;;;8.70;2.60;;;;;;;;;;5042827;28;20041;-74
2023/06/27 02:07:14;;;;;;;7.85;2.58;;;;;;;;;;5025904;28;20053;-75
2023/06/27 02:09:40;;;;;;;10.73;2.90;;;;;;;;;;5041846;28;20038;-75
2023/06/27 02:12:09;;;;;;;8.45;2.80;;;;;;;;;;5041239;28;20045;-74
2023/06/27 02:14:35;;;;;;;9.90;2.60;;;;;;;;;;5042243;28;20049;-73
2023/06/27 02:17:01;;;;;;;6.20;2.60;;;;;;;;;;5043290;28;20092;-75
2023/06/27 02:19:27;;;;;;;7.95;2.70;;;;;;;;;;5041379;28;20463;-74
2023/06/27 02:21:53;;;;;;;7.82;2.80;;;;;;;;;;5039526;28;20144;-75
2023/06/27 02:24:20;;;;;;;7.18;2.42;;;;;;;;;;5041770;28;20100;-75
2023/06/27 02:26:46;;;;;;;7.93;3.00;;;;;;;;;;5039336;28;20073;-75
2023/06/27 02:29:12;;;;;;;7.75;2.97;;;;;;;;;;5024068;28;20049;-74
2023/06/27 02:31:38;;;;;;;7.25;2.85;;;;;;;;;;5043114;28;20042;-74
2023/06/27 02:34:04;;;;;;;5.78;2.25;;;;;;;;;;5037959;28;20152;-74
2023/06/27 02:36:31;;;;;;;8.02;2.50;;;;;;;;;;5042243;28;20052;-73
2023/06/27 02:38:58;;;;;;;10.40;2.97;;;;;;;;;;5039487;28;20040;-74
2023/06/27 02:41:24;;;;;;;8.23;2.80;;;;;;;;;;5041907;28;20041;-73
2023/06/27 02:43:51;;;;;;;8.15;2.38;;;;;;;;;;5038454;28;20418;-74
2023/06/27 02:46:18;;;;;;;8.75;2.92;;;;;;;;;;5041174;28;20105;-74
2023/06/27 02:48:44;;;;;;;9.10;2.85;;;;;;;;;;5038887;28;20052;-74
2023/06/27 02:51:10;;;;;;;6.28;2.63;;;;;;;;;;5037468;28;20053;-75
2023/06/27 02:53:36;;;;;;;5.60;2.55;;;;;;;;;;5038516;28;20079;-75
2023/06/27 02:56:07;;;;;;;7.68;2.97;;;;;;;;;;5023287;28;20076;-74
2023/06/27 02:58:34;;;;;;;11.00;3.03;;;;;;;;;;5039399;28;20053;-74
2023/06/27 03:01:03;;;;;;;7.82;3.15;;;;;;;;;;5039825;28;20045;-73
2023/06/27 03:03:29;;;;;;;6.85;2.95;;;;;;;;;;5024397;28;20045;-74
2023/06/27 03:05:55;;;;;;;8.52;2.92;;;;;;;;;;5040072;28;20415;-74
2023/06/27 03:08:21;;;;;;;8.80;3.15;;;;;;;;;;5024921;28;20401;-74
2023/06/27 03:10:47;;;;;;;8.80;3.10;;;;;;;;;;5039630;28;20041;-75
2023/06/27 03:13:13;;;;;;;10.13;3.33;;;;;;;;;;5012925;28;20404;-74
2023/06/27 03:15:40;;;;;;;8.88;3.13;;;;;;;;;;5035903;28;20109;-75
2023/06/27 03:18:06;;;;;;;9.18;3.35;;;;;;;;;;5037548;28;20054;-73
2023/06/27 03:20:32;;;;;;;9.15;3.20;;;;;;;;;;5039400;28;20541;-74
2023/06/27 03:22:58;;;;;;;7.70;3.35;;;;;;;;;;5042174;28;20076;-74
2023/06/27 03:25:24;;;;;;;7.03;3.30;;;;;;;;;;5033467;28;20484;-74
2023/06/27 03:27:50;;;;;;;9.70;3.47;;;;;;;;;;5031152;28;20038;-75
2023/06/27 03:30:16;;;;;;;9.40;3.63;;;;;;;;;;5037309;28;20073;-73
2023/06/27 03:32:42;;;;;;;8.50;3.80;;;;;;;;;;5030407;28;20057;-75
2023/06/27 03:35:09;;;;;;;10.20;3.85;;;;;;;;;;5032825;28;20157;-74
2023/06/27 03:37:35;;;;;;;11.02;4.43;;;;;;;;;;5014180;28;20072;-74
2023/06/27 03:40:02;;;;;;;9.15;4.00;;;;;;;;;;5031562;28;20050;-74
2023/06/27 03:42:29;;;;;;;10.75;4.00;;;;;;;;;;5031591;28;20402;-72
2023/06/27 03:44:55;;;;;;;9.93;4.22;;;;;;;;;;5034030;28;20528;-73
2023/06/27 03:47:22;;;;;;;9.60;4.20;;;;;;;;;;5029874;28;20045;-75
2023/06/27 03:49:48;;;;;;;11.02;3.95;;;;;;;;;;5035101;28;20041;-75
2023/06/27 03:52:14;;;;;;;9.05;4.70;;;;;;;;;;5029502;28;20056;-75
2023/06/27 03:54:40;;;;;;;8.43;4.05;;;;;;;;;;5041482;28;20120;-76
2023/06/27 03:57:06;;;;;;;9.95;4.60;;;;;;;;;;5043482;28;20105;-74
2023/06/27 03:59:32;;;;;;;10.88;4.80;;;;;;;;;;5042022;28;20052;-74
2023/06/27 04:01:59;;;;;;;10.55;4.60;;;;;;;;;;5042687;28;20053;-75
2023/06/27 04:04:25;;;;;;;9.23;5.10;;;;;;;;;;5029842;28;20561;-76
2023/06/27 04:06:51;;;;;;;8.90;4.38;;;;;;;;;;5023543;28;20042;-74
2023/06/27 04:09:17;;;;;;;9.18;4.78;;;;;;;;;;5034729;28;20107;-75
2023/06/27 04:11:44;;;;;;;9.50;4.90;;;;;;;;;;5043150;28;20446;-74
2023/06/27 04:14:10;;;;;;;9.82;5.22;;;;;;;;;;5042469;28;20120;-74
2023/06/27 04:16:36;;;;;;;11.23;5.13;;;;;;;;;;5042868;28;20381;-75
2023/06/27 04:19:02;;;;;;;13.10;5.38;;;;;;;;;;5044985;28;20049;-74
2023/06/27 04:21:28;;;;;;;11.88;5.13;;;;;;;;;;5043890;28;20041;-74
2023/06/27 04:23:56;;;;;;;14.07;4.95;;;;;;;;;;5041631;28;20042;-76
2023/06/27 04:26:22;;;;;;;9.27;4.32;;;;;;;;;;5033546;28;20042;-74
2023/06/27 04:28:48;;;;;;;8.90;4.45;;;;;;;;;;5034692;28;20129;-74
2023/06/27 04:31:14;;;;;;;10.60;4.72;;;;;;;;;;5016754;28;20041;-75
2023/06/27 04:33:41;;;;;;;10.30;4.60;;;;;;;;;;5028913;28;20045;-74
2023/06/27 04:36:08;;;;;;;7.95;4.30;;;;;;;;;;5023959;28;20057;-75
2023/06/27 04:38:40;;;;;;;8.25;4.38;;;;;;;;;;5030190;28;20131;-75
2023/06/27 04:41:10;;;;;;;12.90;4.28;;;;;;;;;;5033045;28;20053;-72
2023/06/27 04:43:39;;;;;;;11.95;4.55;;;;;;;;;;5029663;28;20077;-74
2023/06/27 04:46:05;;;;;;;9.13;4.20;;;;;;;;;;5034395;28;20133;-74
2023/06/27 04:48:32;;;;;;;10.63;4.80;;;;;;;;;;5032012;28;20128;-74
2023/06/27 04:50:58;;;;;;;11.23;4.75;;;;;;;;;;5031528;28;20052;-74
2023/06/27 04:53:24;;;;;;;13.13;4.75;;;;;;;;;;5036474;28;20562;-74
2023/06/27 04:55:51;;;;;;;9.90;4.78;;;;;;;;;;5036360;28;20075;-74
2023/06/27 04:58:18;;;;;;;11.02;4.47;;;;;;;;;;5036644;28;20192;-73
2023/06/27 05:00:44;;;;;;;10.60;4.70;;;;;;;;;;5037229;28;20499;-74
2023/06/27 05:03:11;;;;;;;11.18;4.80;;;;;;;;;;5031362;28;20815;-74
2023/06/27 05:05:37;;;;;;;9.45;4.80;;;;;;;;;;5017796;28;20124;-74
2023/06/27 05:08:04;;;;;;;10.95;5.05;;;;;;;;;;5029842;28;20072;-74
2023/06/27 05:10:31;;;;;;;10.77;4.95;;;;;;;;;;5032832;28;20120;-73
2023/06/27 05:12:57;;;;;;;10.27;4.97;;;;;;;;;;5033325;28;20766;-74
2023/06/27 05:15:23;;;;;;;10.82;5.10;;;;;;;;;;5029152;28;20054;-74
2023/06/27 05:17:52;;;;;;;11.20;4.88;;;;;;;;;;5033706;28;20041;-74
2023/06/27 05:20:22;;;;;;;11.32;5.13;;;;;;;;;;5032600;28;20033;-74
2023/06/27 05:22:48;;;;;;;11.00;4.60;;;;;;;;;;5031330;28;20057;-74
2023/06/27 05:25:14;;;;;;;12.90;5.43;;;;;;;;;;5030794;28;20408;-75
2023/06/27 05:27:40;;;;;;;10.05;4.20;;;;;;;;;;5038837;28;20088;-75
2023/06/27 05:30:07;;;;;;;11.85;4.45;;;;;;;;;;5039571;28;20105;-75
2023/06/27 05:32:33;;;;;;;8.63;4.28;;;;;;;;;;5032430;28;20053;-75
2023/06/27 05:34:59;;;;;;;11.73;4.57;;;;;;;;;;5031979;28;20045;-74
2023/06/27 05:37:25;;;;;;;10.10;4.00;;;;;;;;;;5033019;28;20092;-73
2023/06/27 05:39:51;;;;;;;9.75;4.38;;;;;;;;;;5032287;28;20052;-74
2023/06/27 05:42:17;;;;;;;8.65;3.95;;;;;;;;;;5033499;28;20048;-74
2023/06/27 05:44:44;;;;;;;10.20;4.05;;;;;;;;;;5026971;28;20053;-74
2023/06/27 05:47:10;;;;;;;9.75;3.70;;;;;;;;;;5029009;28;20050;-74
2023/06/27 05:49:38;;;;;;;9.90;3.85;;;;;;;;;;5015086;28;20057;-74
2023/06/27 05:52:04;;;;;;;9.73;3.72;;;;;;;;;;5031635;28;20051;-75
2023/06/27 05:54:30;;;;;;;9.23;3.80;;;;;;;;;;5039754;28;20125;-76
2023/06/27 05:56:56;;;;;;;9.80;3.78;;;;;;;;;;5040236;28;20045;-75
2023/06/27 05:59:22;;;;;;;8.07;3.72;;;;;;;;;;5040516;28;20109;-75
2023/06/27 06:01:49;;;;;;;8.82;3.47;;;;;;;;;;5041626;28;20053;-75
2023/06/27 06:04:15;;;;;;;10.95;4.00;;;;;;;;;;5039470;28;20079;-75
2023/06/27 06:06:41;;;;;;;8.82;3.60;;;;;;;;;;5020058;28;20046;-74
2023/06/27 06:09:08;;;;;;;7.80;3.10;;;;;;;;;;5024524;28;20150;-75
2023/06/27 06:11:34;;;;;;;8.98;2.75;;;;;;;;;;5041046;28;20124;-75
2023/06/27 06:14:03;;;;;;;11.00;2.70;;;;;;;;;;5036698;28;20081;-74
2023/06/27 06:16:33;;;;;;;8.73;2.58;;;;;;;;;;5036107;28;20063;-73
2023/06/27 06:19:03;;;;;;;9.43;2.38;;;;;;;;;;5037797;28;20096;-74
2023/06/27 06:21:29;;;;;;;8.37;2.47;;;;;;;;;;5030970;28;20067;-73
2023/06/27 06:23:55;;;;;;;9.63;2.47;;;;;;;;;;5025714;28;20048;-73
2023/06/27 06:26:21;;;;;;;7.78;2.50;;;;;;;;;;5038672;28;20501;-74
2023/06/27 06:28:47;;;;;;;8.82;2.20;;;;;;;;;;5041467;28;20050;-73
2023/06/27 06:31:16;;;;;;;7.63;2.50;;;;;;;;;;5041168;28;20037;-74
2023/06/27 06:33:47;;;;;;;9.40;2.40;;;;;;;;;;5038677;28;20041;-74
2023/06/27 06:36:13;;;;;;;8.05;1.73;;;;;;;;;;5034358;28;20038;-72
2023/06/27 06:38:39;;;;;;;6.82;1.67;;;;;;;;;;5036492;28;20045;-74
2023/06/27 06:41:06;;;;;;;8.07;1.58;;;;;;;;;;5038251;28;20526;-72
2023/06/27 06:43:32;;;;;;;8.90;1.98;;;;;;;;;;5030593;28;20038;-73
2023/06/27 06:45:59;;;;;;;6.82;1.70;;;;;;;;;;5028978;28;20038;-74
2023/06/27 06:48:25;;;;;;;6.32;1.60;;;;;;;;;;5022285;28;20049;-74
2023/06/27 06:50:51;;;;;;;7.10;1.73;;;;;;;;;;5039838;28;20136;-73
2023/06/27 06:53:20;;;;;;;7.85;1.65;;;;;;;;;;5036032;28;20041;-73
2023/06/27 06:55:46;;;;;;;7.68;1.80;;;;;;;;;;5038030;28;20128;-73
2023/06/27 06:58:13;;;;;;;7.93;1.60;;;;;;;;;;5034860;28;20053;-73
2023/06/27 07:00:39;;;;;;;7.57;1.58;;;;;;;;;;5020285;28;20078;-74
2023/06/27 07:03:11;;;;;;;7.30;1.77;;;;;;;;;;5027842;28;20041;-73
2023/06/27 07:05:38;;;;;;;5.60;1.40;;;;;;;;;;5038012;28;20102;-73
2023/06/27 07:08:05;;;;;;;7.63;1.60;;;;;;;;;;5039032;28;20049;-73
2023/06/27 07:10:31;;;;;;;8.10;1.40;;;;;;;;;;5038668;28;20053;-73
2023/06/27 07:12:57;;;;;;;6.90;1.48;;;;;;;;;;5041248;28;20033;-72
2023/06/27 07:15:24;;;;;;;5.78;1.20;;;;;;;;;;5029375;28;20038;-73
2023/06/27 07:17:50;;;;;;;6.50;1.48;;;;;;;;;;5039339;28;20060;-72
2023/06/27 07:20:17;;;;;;;6.13;1.00;;;;;;;;;;5039751;28;20087;-75
2023/06/27 07:22:43;;;;;;;5.70;1.20;;;;;;;;;;5035145;28;20038;-75
2023/06/27 07:25:09;;;;;;;5.93;1.45;;;;;;;;;;5035739;28;20045;-74
2023/06/27 07:27:35;;;;;;;11.02;1.67;;;;;;;;;;5034402;28;20071;-75
2023/06/27 07:30:02;;;;;;;8.80;1.58;;;;;;;;;;5030464;28;20045;-76
2023/06/27 07:32:28;;;;;;;5.88;1.17;;;;;;;;;;5025491;28;20045;-77
2023/06/27 07:34:54;;;;;;;5.55;1.23;;;;;;;;;;5029202;28;20121;-73
2023/06/27 07:37:20;;;;;;;5.43;1.20;;;;;;;;;;5034842;28;20041;-76
2023/06/27 07:39:46;;;;;;;5.28;1.27;;;;;;;;;;5038274;28;20055;-75
2023/06/27 07:42:12;;;;;;;5.20;1.05;;;;;;;;;;5038276;28;20071;-73
2023/06/27 07:44:38;;;;;;;6.68;1.38;;;;;;;;;;5034327;28;20041;-75
2023/06/27 07:47:04;;;;;;;5.40;1.33;;;;;;;;;;5039526;28;20133;-74
2023/06/27 07:49:33;;;;;;;4.72;0.90;;;;;;;;;;5038662;28;20109;-76
2023/06/27 07:51:59;;;;;;;5.07;1.13;;;;;;;;;;5019504;28;20129;-75
2023/06/27 07:54:27;;;;;;;5.80;1.00;;;;;;;;;;5038332;28;20045;-75
2023/06/27 07:56:56;;;;;;;9.30;1.20;;;;;;;;;;5035668;28;20048;-75
2023/06/27 07:59:22;;;;;;;5.22;1.00;;;;;;;;;;5034534;28;20050;-74
2023/06/27 08:01:49;;;;;;;6.30;1.20;;;;;;;;;;5038547;28;20116;-77
2023/06/27 08:04:15;;;;;;;4.95;1.10;;;;;;;;;;5041360;28;20037;-74
2023/06/27 08:06:42;;;;;;;9.85;1.30;;;;;;;;;;5041641;28;20171;-72
2023/06/27 08:09:08;;;;;;;27.08;1.98;;;;;;;;;;5039366;28;20050;-75
2023/06/27 08:11:34;;;;;;;6.75;1.20;;;;;;;;;;5041834;28;20414;-74
2023/06/27 08:14:01;;;;;;;9.52;1.00;;;;;;;;;;5040673;28;20048;-73
2023/06/27 08:16:27;;;;;;;13.40;1.40;;;;;;;;;;5036933;28;20146;-74
2023/06/27 08:18:53;;;;;;;8.88;1.40;;;;;;;;;;5035787;28;20060;-74
2023/06/27 08:21:19;;;;;;;8.88;1.48;;;;;;;;;;5038186;28;20042;-75
2023/06/27 08:23:45;;;;;;;19.92;1.77;;;;;;;;;;5037665;28;20492;-73
2023/06/27 08:26:15;;;;;;;7.82;1.20;;;;;;;;;;5043112;28;20080;-75
2023/06/27 08:28:42;;;;;;;12.02;1.73;;;;;;;;;;5037898;28;20465;-73
2023/06/27 08:31:08;;;;;;;8.68;1.27;;;;;;;;;;5036656;28;20119;-71
2023/06/27 08:33:34;;;;;;;5.50;1.05;;;;;;;;;;5042549;28;20487;-72
2023/06/27 08:36:00;;;;;;;6.85;1.25;;;;;;;;;;5038824;28;20045;-77
2023/06/27 08:38:27;;;;;;;8.07;1.33;;;;;;;;;;5039204;28;20107;-73
2023/06/27 08:40:56;;;;;;;4.25;1.08;;;;;;;;;;5036832;28;20049;-75
2023/06/27 08:43:23;;;;;;;5.78;1.02;;;;;;;;;;5036691;28;20152;-73
2023/06/27 08:45:50;;;;;;;7.03;1.15;;;;;;;;;;5020273;28;20081;-72
2023/06/27 08:48:17;;;;;;;7.72;1.30;;;;;;;;;;5033862;28;20571;-73
2023/06/27 08:50:44;;;;;;;6.25;1.17;;;;;;;;;;5043806;28;20088;-76
2023/06/27 08:53:17;;;;;;;6.07;1.15;;;;;;;;;;5033060;28;20432;-73
2023/06/27 08:55:46;;;;;;;6.53;1.10;;;;;;;;;;5033089;28;20045;-73
2023/06/27 08:58:15;;;;;;;8.98;1.40;;;;;;;;;;5037481;28;20053;-73
2023/06/27 09:00:42;;;;;;;4.53;0.90;;;;;;;;;;5032532;28;20501;-75
2023/06/27 09:03:08;;;;;;;7.47;1.30;;;;;;;;;;5037139;28;20053;-73
2023/06/27 09:05:34;;;;;;;9.23;1.20;;;;;;;;;;5036049;28;20068;-72
2023/06/27 09:08:00;;;;;;;5.85;1.13;;;;;;;;;;5031692;28;20120;-73
2023/06/27 09:10:26;;;;;;;6.25;1.30;;;;;;;;;;5034102;28;20037;-70
2023/06/27 09:12:56;;;;;;;7.90;0.90;;;;;;;;;;5036350;28;20072;-72
2023/06/27 09:15:23;;;;;;;4.45;1.08;;;;;;;;;;5032590;28;20041;-73
2023/06/27 09:17:49;;;;;;;3.25;0.95;;;;;;;;;;5036606;28;20037;-73
2023/06/27 09:20:17;;;;;;;7.65;1.27;;;;;;;;;;5035599;28;20052;-73
2023/06/27 09:22:43;;;;;;;5.13;1.08;;;;;;;;;;5018604;28;20391;-72
2023/06/27 09:25:21;;;;;;;6.05;1.15;;;;;;;;;;5036280;28;20537;-73
2023/06/27 09:27:48;;;;;;;6.10;1.10;;;;;;;;;;5021882;28;20053;-74
2023/06/27 09:30:14;;;;;;;4.10;0.95;;;;;;;;;;5030449;28;20491;-73
2023/06/27 09:32:57;;;;;;;4.07;1.10;;;;;;;;;;5032386;28;20045;-72
2023/06/27 09:35:24;;;;;;;5.97;1.20;;;;;;;;;;5037921;28;20115;-72
2023/06/27 09:37:55;;;;;;;4.97;1.10;;;;;;;;;;5038223;28;20052;-74
2023/06/27 09:40:27;;;;;;;5.10;1.10;;;;;;;;;;5036156;28;20049;-73
2023/06/27 09:42:54;;;;;;;6.28;1.08;;;;;;;;;;5036044;28;20074;-72
2023/06/27 09:45:20;;;;;;;7.13;1.20;;;;;;;;;;5035456;28;20085;-74
2023/06/27 09:47:50;;;;;;;5.32;0.80;;;;;;;;;;5031614;28;20045;-72
2023/06/27 09:50:16;;;;;;;5.30;1.10;;;;;;;;;;5016656;28;20081;-74
2023/06/27 09:52:49;;;;;;;5.18;1.00;;;;;;;;;;5022564;28;20688;-73
2023/06/27 09:55:19;;;;;;;3.88;0.80;;;;;;;;;;5036696;28;20479;-73
2023/06/27 09:57:45;;;;;;;5.10;1.08;;;;;;;;;;5035673;28;20115;-76
2023/06/27 10:00:12;;;;;;;5.20;0.95;;;;;;;;;;5040066;28;20064;-74
2023/06/27 10:02:38;;;;;;;8.70;1.00;;;;;;;;;;5039912;28;20067;-78
2023/06/27 10:05:04;;;;;;;4.90;1.00;;;;;;;;;;5042504;28;20042;-76
2023/06/27 10:07:33;;;;;;;4.20;0.82;;;;;;;;;;5041791;28;20056;-73
2023/06/27 10:09:59;;;;;;;5.32;1.00;;;;;;;;;;5037162;28;20153;-74
2023/06/27 10:12:25;;;;;;;6.45;1.00;;;;;;;;;;5033873;28;20448;-73
2023/06/27 10:14:52;;;;;;;5.65;1.00;;;;;;;;;;5035096;28;20120;-74
2023/06/27 10:17:18;;;;;;;7.68;1.30;;;;;;;;;;5032957;28;20073;-71
2023/06/27 10:19:47;;;;;;;4.38;1.00;;;;;;;;;;5031794;28;20099;-73
2023/06/27 10:22:18;;;;;;;7.03;1.02;;;;;;;;;;5035394;28;20049;-73
2023/06/27 10:24:45;;;;;;;8.20;1.00;;;;;;;;;;5031300;28;20085;-73
2023/06/27 10:27:13;;;;;;;4.18;0.70;;;;;;;;;;5029963;28;20042;-73
2023/06/27 10:29:43;;;;;;;4.93;0.80;;;;;;;;;;5033419;28;20049;-74
2023/06/27 10:32:10;;;;;;;8.88;1.30;;;;;;;;;;5033061;28;20048;-72
2023/06/27 10:34:43;;;;;;;5.43;0.85;;;;;;;;;;5039490;28;20095;-77
2023/06/27 10:37:10;;;;;;;8.82;1.25;;;;;;;;;;5032656;28;20045;-76
2023/06/27 10:39:37;;;;;;;6.95;1.13;;;;;;;;;;5035477;28;20381;-74
2023/06/27 10:42:03;;;;;;;4.20;0.90;;;;;;;;;;5037573;28;20461;-74
2023/06/27 10:44:30;;;;;;;5.25;1.00;;;;;;;;;;5035556;28;20146;-74
2023/06/27 10:47:17;;;;;;;4.10;1.05;;;;;;;;;;5037099;28;20079;-73
2023/06/27 10:49:48;;;;;;;6.85;1.25;;;;;;;;;;5039227;28;20084;-74
2023/06/27 10:52:23;;;;;;;6.45;1.20;;;;;;;;;;5037615;28;20063;-73
2023/06/27 10:55:08;;;;;;;5.55;1.08;;;;;;;;;;5038223;28;20037;-74
2023/06/27 10:57:41;;;;;;;5.97;1.10;;;;;;;;;;5037719;28;20102;-74
2023/06/27 11:00:14;;;;;;;9.25;1.30;;;;;;;;;;5039182;28;20083;-74
2023/06/27 11:02:44;;;;;;;5.05;1.00;;;;;;;;;;5036895;28;20068;-77
2023/06/27 11:05:16;;;;;;;7.30;1.42;;;;;;;;;;5039064;28;20049;-76
2023/06/27 11:07:52;;;;;;;7.82;1.50;;;;;;;;;;5037336;28;20045;-73
2023/06/27 11:10:26;;;;;;;6.80;1.13;;;;;;;;;;5032608;28;20064;-73
2023/06/27 11:12:52;;;;;;;4.55;0.88;;;;;;;;;;5034463;28;20200;-74
2023/06/27 11:15:18;;;;;;;5.75;1.30;;;;;;;;;;5032300;28;20376;-73
2023/06/27 11:17:46;;;;;;;4.85;1.00;;;;;;;;;;5032351;28;20046;-77
2023/06/27 11:20:15;;;;;;;4.97;0.90;;;;;;;;;;5038443;28;20103;-76
2023/06/27 11:22:41;;;;;;;6.25;1.10;;;;;;;;;;5035595;28;20049;-75
2023/06/27 11:25:14;;;;;;;8.88;1.40;;;;;;;;;;5029276;28;20077;-73
2023/06/27 11:27:40;;;;;;;6.63;1.10;;;;;;;;;;5030487;28;20050;-72
2023/06/27 11:30:07;;;;;;;6.00;1.08;;;;;;;;;;5032260;28;20052;-72
2023/06/27 11:32:33;;;;;;;7.85;1.15;;;;;;;;;;5031042;28;20420;-73
2023/06/27 11:34:59;;;;;;;5.35;1.17;;;;;;;;;;5033035;28;20114;-73
2023/06/27 11:37:26;;;;;;;6.07;1.25;;;;;;;;;;5034927;28;20093;-72
2023/06/27 11:40:06;;;;;;;7.53;1.30;;;;;;;;;;5035841;28;20091;-71
2023/06/27 11:42:33;;;;;;;3.67;0.90;;;;;;;;;;5019141;28;20438;-71
2023/06/27 11:45:00;;;;;;;7.22;1.02;;;;;;;;;;5036425;28;20658;-71
2023/06/27 11:47:26;;;;;;;4.65;1.00;;;;;;;;;;5038324;28;20083;-73
2023/06/27 11:49:52;;;;;;;6.18;1.02;;;;;;;;;;5038857;28;20084;-75
2023/06/27 11:52:18;;;;;;;5.38;1.10;;;;;;;;;;5037474;28;20076;-73
2023/06/27 11:54:50;;;;;;;5.55;1.20;;;;;;;;;;5041127;28;20045;-71
2023/06/27 11:57:17;;;;;;;4.57;0.88;;;;;;;;;;5041798;28;20045;-72
2023/06/27 11:59:43;;;;;;;9.15;1.23;;;;;;;;;;5038982;28;20033;-73
2023/06/27 12:02:10;;;;;;;8.20;1.15;;;;;;;;;;5029318;28;20045;-73
2023/06/27 12:04:36;;;;;;;6.68;1.20;;;;;;;;;;5024657;28;20060;-71
2023/06/27 12:07:21;;;;;;;26.35;2.47;;;;;;;;;;5029544;28;20049;-72
2023/06/27 12:09:47;;;;;;;17.35;2.25;;;;;;;;;;5031441;28;20045;-72
2023/06/27 12:12:13;;;;;;;6.00;1.23;;;;;;;;;;5016869;28;20046;-72
2023/06/27 12:14:39;;;;;;;7.72;1.13;;;;;;;;;;5027159;28;20109;-73
2023/06/27 12:17:19;;;;;;;5.53;1.25;;;;;;;;;;5034611;28;20078;-72
2023/06/27 12:19:49;;;;;;;8.82;1.02;;;;;;;;;;5036383;28;20419;-73
2023/06/27 12:22:15;;;;;;;7.20;1.33;;;;;;;;;;5035189;28;20565;-71
2023/06/27 12:24:41;;;;;;;4.55;0.98;;;;;;;;;;5035306;28;20080;-71
2023/06/27 12:27:08;;;;;;;6.60;1.20;;;;;;;;;;5032695;28;20057;-72
2023/06/27 12:29:34;;;;;;;5.60;1.10;;;;;;;;;;5032789;28;20041;-72
2023/06/27 12:32:01;;;;;;;5.55;1.20;;;;;;;;;;5045400;28;20037;-72
2023/06/27 12:34:27;;;;;;;5.00;1.02;;;;;;;;;;5044463;28;20057;-71
2023/06/27 12:36:53;;;;;;;6.93;1.27;;;;;;;;;;5043527;28;20053;-72
2023/06/27 12:39:19;;;;;;;7.35;1.30;;;;;;;;;;5043187;28;20185;-72
2023/06/27 12:41:46;;;;;;;5.28;1.10;;;;;;;;;;5043988;28;20404;-72
2023/06/27 12:44:12;;;;;;;6.55;1.00;;;;;;;;;;5048289;28;20051;-72
2023/06/27 12:46:39;;;;;;;6.93;1.20;;;;;;;;;;5050135;28;20052;-72
2023/06/27 12:49:05;;;;;;;5.82;1.10;;;;;;;;;;5035337;28;20046;-71
2023/06/27 12:51:31;;;;;;;5.93;1.25;;;;;;;;;;5033309;28;20412;-73
2023/06/27 12:53:57;;;;;;;8.85;1.25;;;;;;;;;;5031781;28;20045;-72
2023/06/27 12:56:23;;;;;;;7.00;1.10;;;;;;;;;;5049947;28;20049;-72
2023/06/27 12:58:50;;;;;;;6.20;1.48;;;;;;;;;;5041411;28;20144;-72
2023/06/27 13:01:21;;;;;;;5.72;1.20;;;;;;;;;;5019006;28;20049;-72
2023/06/27 13:03:47;;;;;;;6.72;1.20;;;;;;;;;;5015155;28;20061;-71
2023/06/27 13:06:13;;;;;;;5.75;0.90;;;;;;;;;;5042813;28;20077;-72
2023/06/27 13:08:39;;;;;;;6.22;1.23;;;;;;;;;;5027238;28;20072;-72
2023/06/27 13:11:05;;;;;;;6.97;1.20;;;;;;;;;;5047351;28;20449;-72
2023/06/27 13:13:31;;;;;;;6.68;1.70;;;;;;;;;;5039883;28;20399;-72
2023/06/27 13:15:58;;;;;;;6.03;1.40;;;;;;;;;;5036869;28;20048;-72
2023/06/27 13:18:24;;;;;;;8.70;1.30;;;;;;;;;;5037392;28;20057;-73
2023/06/27 13:20:51;;;;;;;7.72;1.48;;;;;;;;;;5031567;28;20041;-73
2023/06/27 13:23:17;;;;;;;6.47;1.40;;;;;;;;;;5031052;28;20081;-71
2023/06/27 13:25:44;;;;;;;7.18;1.40;;;;;;;;;;5031166;28;20042;-73
2023/06/27 13:28:10;;;;;;;4.63;1.10;;;;;;;;;;5021132;28;20037;-72
2023/06/27 13:30:36;;;;;;;6.57;1.20;;;;;;;;;;5033395;28;20034;-73
2023/06/27 13:33:02;;;;;;;4.50;1.05;;;;;;;;;;5034619;28;20068;-71
2023/06/27 13:35:29;;;;;;;5.10;1.30;;;;;;;;;;5036233;28;20082;-72
2023/06/27 13:37:55;;;;;;;7.03;1.30;;;;;;;;;;5037753;28;20041;-70
2023/06/27 13:40:21;;;;;;;6.93;1.10;;;;;;;;;;5040524;28;20076;-71
2023/06/27 13:42:47;;;;;;;4.70;0.98;;;;;;;;;;5032659;28;20041;-71
2023/06/27 13:45:13;;;;;;;6.38;1.13;;;;;;;;;;5034548;28;20122;-74
2023/06/27 13:47:39;;;;;;;7.07;1.60;;;;;;;;;;5034430;28;20056;-73
2023/06/27 13:50:06;;;;;;;10.18;1.38;;;;;;;;;;5033983;28;20076;-73
2023/06/27 13:52:35;;;;;;;7.60;1.40;;;;;;;;;;5027706;28;20434;-74
2023/06/27 13:55:02;;;;;;;8.40;1.67;;;;;;;;;;5031536;28;20103;-75
2023/06/27 13:57:28;;;;;;;10.77;1.90;;;;;;;;;;5045550;28;20057;-71
2023/06/27 13:59:54;;;;;;;6.13;1.17;;;;;;;;;;5052794;28;20080;-72
2023/06/27 14:02:21;;;;;;;8.65;1.35;;;;;;;;;;5043390;28;20053;-73
2023/06/27 14:04:47;;;;;;;4.97;1.08;;;;;;;;;;5031314;28;20495;-71
2023/06/27 14:07:13;;;;;;;8.43;1.10;;;;;;;;;;5035024;28;20045;-72
2023/06/27 14:09:39;;;;;;;6.38;1.20;;;;;;;;;;5028112;28;20137;-71
2023/06/27 14:12:05;;;;;;;8.23;1.30;;;;;;;;;;5028222;28;20041;-71
2023/06/27 14:14:31;;;;;;;6.78;1.00;;;;;;;;;;5021134;28;20124;-72
2023/06/27 14:16:57;;;;;;;6.72;1.33;;;;;;;;;;5025818;28;20050;-72
2023/06/27 14:19:23;;;;;;;9.40;1.50;;;;;;;;;;5028193;28;20049;-73
2023/06/27 14:21:49;;;;;;;5.88;1.00;;;;;;;;;;5038238;28;20053;-73
2023/06/27 14:24:16;;;;;;;5.85;1.00;;;;;;;;;;5033483;28;20037;-72
2023/06/27 14:26:42;;;;;;;5.13;1.10;;;;;;;;;;5031579;28;20049;-72
2023/06/27 14:29:08;;;;;;;9.75;1.45;;;;;;;;;;5032502;28;20053;-72
2023/06/27 14:31:34;;;;;;;9.85;1.20;;;;;;;;;;5027592;28;20500;-72
2023/06/27 14:34:00;;;;;;;8.82;1.10;;;;;;;;;;5026239;28;20091;-71
2023/06/27 14:36:27;;;;;;;6.47;1.10;;;;;;;;;;5043671;28;20052;-71
2023/06/27 14:38:53;;;;;;;8.48;1.60;;;;;;;;;;5042089;28;20038;-72
2023/06/27 14:41:19;;;;;;;4.93;1.00;;;;;;;;;;5029905;28;20042;-71